Time;durP1;ratioP1;P1;durP2;ratioP2;P2;SDS_P1;SDS_P2;PMS_P1;PMS_P2;Temp;Humidity;BMP_temperature;BMP_pressure;BME280_temperature;BME280_humidity;BME280_pressure;Samples;Min_cycle;Max_cycle;Signal;HPM_P1;HPM_P2
2022/01/12 00:01:09;;;;;;;48.33;21.88;;;5.10;99.80;;;;;;5085413;28;37576;-62
2022/01/12 00:03:36;;;;;;;54.80;23.83;;;5.10;99.80;;;;;;5084716;28;36848;-62
2022/01/12 00:06:04;;;;;;;53.00;22.73;;;5.10;99.80;;;;;;5084192;28;37688;-61
2022/01/12 00:08:32;;;;;;;45.17;21.70;;;5.10;99.80;;;;;;5085125;27;37978;-61
2022/01/12 00:10:59;;;;;;;49.00;22.00;;;5.20;99.90;;;;;;5083827;28;37561;-61
2022/01/12 00:13:27;;;;;;;46.92;22.08;;;5.20;99.90;;;;;;5084453;27;37898;-61
2022/01/12 00:15:56;;;;;;;64.25;25.05;;;5.20;99.80;;;;;;5083970;27;36317;-61
2022/01/12 00:18:23;;;;;;;49.42;23.77;;;5.10;99.90;;;;;;5084217;27;39095;-61
2022/01/12 00:20:51;;;;;;;55.50;22.23;;;5.10;99.90;;;;;;5083818;27;36287;-62
2022/01/12 00:23:19;;;;;;;55.00;24.38;;;5.20;99.90;;;;;;5083989;27;36930;-62
2022/01/12 00:26:03;;;;;;;54.28;23.98;;;5.20;99.90;;;;;;5084319;27;37064;-61
2022/01/12 00:34:04;;;;;;;59.80;24.70;;;5.10;99.90;;;;;;5084277;28;38108;-61
2022/01/12 00:36:32;;;;;;;68.30;24.88;;;5.10;99.90;;;;;;5084571;27;38646;-61
2022/01/12 00:39:00;;;;;;;69.47;25.15;;;5.10;99.90;;;;;;5083244;28;37554;-61
2022/01/12 00:41:28;;;;;;;64.07;24.63;;;5.10;99.90;;;;;;5084525;28;38302;-62
2022/01/12 00:44:00;;;;;;;61.60;23.92;;;5.10;99.90;;;;;;5083965;28;37449;-62
2022/01/12 00:46:30;;;;;;;51.78;23.35;;;5.10;99.90;;;;;;5083829;27;37346;-62
2022/01/12 00:48:59;;;;;;;56.45;23.15;;;5.10;99.90;;;;;;5084377;27;38179;-61
2022/01/12 00:51:31;;;;;;;57.72;23.35;;;5.10;99.90;;;;;;5081947;28;37457;-61
2022/01/12 00:53:59;;;;;;;49.70;22.13;;;5.20;99.90;;;;;;5084335;27;36693;-62
2022/01/12 00:56:27;;;;;;;52.88;21.77;;;5.30;99.90;;;;;;5084058;27;37546;-61
2022/01/12 00:58:55;;;;;;;67.05;23.60;;;5.20;99.90;;;;;;5084181;28;39274;-61
2022/01/12 01:01:23;;;;;;;52.80;23.20;;;5.30;99.90;;;;;;5083718;27;38900;-62
2022/01/12 01:03:53;;;;;;;50.33;21.35;;;5.30;99.90;;;;;;5083688;28;36790;-61
2022/01/12 01:06:20;;;;;;;53.30;22.58;;;5.20;99.90;;;;;;5084052;27;38586;-61
2022/01/12 01:08:51;;;;;;;72.68;23.83;;;5.30;99.90;;;;;;5081876;27;37458;-62
2022/01/12 01:11:18;;;;;;;57.95;23.50;;;5.30;99.90;;;;;;5083389;27;37290;-62
2022/01/12 01:13:56;;;;;;;50.92;22.27;;;5.30;99.90;;;;;;5083867;28;35950;-61
2022/01/12 01:16:28;;;;;;;50.95;21.95;;;5.10;99.90;;;;;;5083308;27;38587;-61
2022/01/12 01:27:12;;;;;;;60.45;23.75;;;5.30;99.90;;;;;;5084040;28;40349;-61
2022/01/12 01:29:39;;;;;;;61.67;23.45;;;5.30;99.90;;;;;;5080923;28;37817;-61
2022/01/12 01:32:08;;;;;;;76.40;24.55;;;5.30;99.90;;;;;;5081030;27;37773;-61
2022/01/12 01:34:43;;;;;;;74.00;21.27;;;5.40;99.90;;;;;;5080796;27;35788;-61
2022/01/12 01:37:10;;;;;;;52.45;21.38;;;5.40;99.90;;;;;;5081256;27;37846;-62
2022/01/12 01:39:38;;;;;;;84.45;23.85;;;5.40;99.90;;;;;;5081884;28;37856;-62
2022/01/12 01:42:16;;;;;;;63.45;21.60;;;5.50;99.90;;;;;;5081469;27;38033;-61
2022/01/12 01:55:44;;;;;;;64.72;21.75;;;5.50;99.90;;;;;;5082625;28;37845;-61
2022/01/12 01:58:11;;;;;;;69.78;21.77;;;5.50;99.90;;;;;;5082665;27;37184;-61
2022/01/12 02:00:41;;;;;;;46.92;19.48;;;5.50;99.90;;;;;;5082231;28;37737;-61
2022/01/12 02:03:08;;;;;;;64.05;20.73;;;5.40;99.90;;;;;;5083013;28;37492;-62
2022/01/12 02:05:39;;;;;;;53.72;21.17;;;5.50;99.90;;;;;;5083137;28;36435;-62
2022/01/12 02:08:07;;;;;;;56.28;21.88;;;5.50;99.90;;;;;;5082839;27;37650;-62
2022/01/12 02:10:34;;;;;;;43.25;20.65;;;5.50;99.90;;;;;;5082206;28;38576;-62
2022/01/12 02:13:02;;;;;;;56.10;20.90;;;5.50;99.90;;;;;;5081719;27;36189;-62
2022/01/12 02:15:29;;;;;;;48.70;20.83;;;5.50;99.90;;;;;;5082520;28;36253;-62
2022/01/12 02:18:07;;;;;;;61.05;22.35;;;5.50;99.90;;;;;;5082939;28;38021;-61
2022/01/12 02:40:10;;;;;;;44.17;19.05;;;5.50;99.90;;;;;;5082424;28;38597;-62
2022/01/12 02:42:42;;;;;;;45.10;19.15;;;5.50;99.90;;;;;;5081985;28;38382;-62
2022/01/12 02:50:46;;;;;;;37.92;17.50;;;5.50;99.90;;;;;;5082361;28;37322;-61
2022/01/12 02:56:00;;;;;;;39.60;18.20;;;5.50;99.90;;;;;;5083257;28;38674;-62
2022/01/12 02:58:27;;;;;;;41.15;18.42;;;5.50;99.90;;;;;;5080876;27;36536;-61
2022/01/12 03:01:36;;;;;;;39.72;18.88;;;5.90;99.90;;;;;;5082893;27;37598;-62
2022/01/12 03:04:07;;;;;;;32.65;15.65;;;5.50;99.90;;;;;;5082286;28;38401;-62
2022/01/12 03:06:39;;;;;;;35.88;16.67;;;5.50;99.80;;;;;;5081142;27;36132;-62
2022/01/12 03:09:10;;;;;;;38.78;17.08;;;5.40;99.80;;;;;;5080897;27;37214;-62
2022/01/12 03:11:38;;;;;;;38.25;15.90;;;5.40;99.70;;;;;;5082581;28;37547;-62
2022/01/12 03:14:06;;;;;;;31.25;16.25;;;5.40;99.70;;;;;;5082015;27;36494;-62
2022/01/12 03:16:34;;;;;;;33.22;16.63;;;5.30;99.50;;;;;;5085595;28;38229;-62
2022/01/12 03:19:04;;;;;;;28.90;15.00;;;5.20;99.30;;;;;;5085946;28;36669;-62
2022/01/12 03:21:33;;;;;;;31.52;15.52;;;5.20;99.10;;;;;;5085393;28;37751;-61
2022/01/12 03:24:02;;;;;;;27.40;13.73;;;5.10;99.00;;;;;;5084778;27;37746;-61
2022/01/12 03:26:33;;;;;;;26.83;13.57;;;5.10;98.90;;;;;;5085930;28;37533;-62
2022/01/12 03:29:01;;;;;;;31.83;15.02;;;5.00;98.80;;;;;;5084614;28;36894;-62
2022/01/12 03:31:33;;;;;;;33.30;13.60;;;5.00;98.80;;;;;;5085437;28;36071;-62
2022/01/12 03:34:07;;;;;;;29.98;14.63;;;4.90;98.80;;;;;;5085194;27;37760;-61
2022/01/12 03:36:54;;;;;;;27.27;13.98;;;4.90;98.80;;;;;;5086568;27;36359;-62
2022/01/12 03:39:21;;;;;;;26.73;12.65;;;4.80;98.70;;;;;;5084547;28;37585;-62
2022/01/12 03:41:50;;;;;;;27.92;14.07;;;4.80;98.60;;;;;;5084083;28;41606;-61
2022/01/12 03:44:18;;;;;;;25.05;12.88;;;4.80;98.50;;;;;;5085429;28;36548;-62
2022/01/12 03:46:48;;;;;;;22.45;12.25;;;4.80;98.50;;;;;;5085929;28;40041;-62
2022/01/12 03:49:16;;;;;;;27.38;12.50;;;4.70;98.50;;;;;;5085730;28;38206;-61
2022/01/12 03:51:44;;;;;;;26.55;12.40;;;4.70;98.40;;;;;;5085324;28;37392;-62
2022/01/12 03:54:11;;;;;;;25.52;11.88;;;4.60;98.20;;;;;;5084518;28;36652;-62
2022/01/12 03:56:39;;;;;;;20.17;10.65;;;4.60;98.10;;;;;;5083746;27;37496;-62
2022/01/12 03:59:08;;;;;;;21.70;10.45;;;4.60;98.10;;;;;;5084351;28;36970;-62
2022/01/12 04:01:35;;;;;;;23.90;11.32;;;4.50;98.10;;;;;;5082510;27;38203;-62
2022/01/12 04:04:06;;;;;;;23.48;11.55;;;4.50;98.10;;;;;;5082168;28;38215;-61
2022/01/12 04:09:19;;;;;;;24.50;11.98;;;4.50;98.10;;;;;;5083520;27;39090;-62
2022/01/12 04:11:47;;;;;;;25.42;11.43;;;4.50;98.00;;;;;;5084459;27;35664;-62
2022/01/12 04:14:15;;;;;;;23.65;11.63;;;4.50;97.90;;;;;;5083313;28;40584;-62
2022/01/12 04:16:43;;;;;;;24.27;11.48;;;4.50;97.90;;;;;;5084304;28;40168;-62
2022/01/12 04:19:10;;;;;;;25.45;12.02;;;4.40;97.80;;;;;;5084842;27;37961;-62
2022/01/12 04:21:43;;;;;;;24.00;11.15;;;4.40;97.80;;;;;;5085078;28;38284;-62
2022/01/12 04:24:10;;;;;;;24.87;10.53;;;4.40;97.70;;;;;;5083937;27;37795;-62
2022/01/12 04:26:38;;;;;;;41.90;9.57;;;4.30;97.50;;;;;;5083690;28;37242;-62
2022/01/12 04:29:06;;;;;;;54.03;10.13;;;4.30;97.40;;;;;;5082619;28;36879;-61
2022/01/12 04:31:35;;;;;;;69.93;10.95;;;4.20;97.40;;;;;;5084641;28;36253;-62
2022/01/12 04:34:04;;;;;;;75.43;10.23;;;4.20;97.40;;;;;;5083378;27;37999;-62
2022/01/12 04:36:31;;;;;;;61.90;10.02;;;4.10;97.40;;;;;;5084888;27;38918;-62
2022/01/12 04:38:59;;;;;;;60.47;9.57;;;4.00;97.30;;;;;;5083366;28;39732;-62
2022/01/12 04:41:27;;;;;;;64.30;9.73;;;4.00;97.30;;;;;;5084808;27;38375;-62
2022/01/12 04:43:56;;;;;;;88.47;10.25;;;4.00;97.30;;;;;;5084130;27;38583;-62
2022/01/12 04:46:38;;;;;;;126.60;12.55;;;3.90;97.20;;;;;;5084480;27;38239;-62
2022/01/12 04:51:51;;;;;;;148.52;12.02;;;3.70;97.30;;;;;;5073625;27;38238;-62
2022/01/12 04:54:18;;;;;;;106.10;11.35;;;3.60;97.60;;;;;;5083544;27;37737;-62
2022/01/12 04:56:46;;;;;;;141.20;12.43;;;3.60;97.80;;;;;;5083979;27;37125;-62
2022/01/12 04:59:13;;;;;;;126.88;12.73;;;3.60;97.80;;;;;;5083738;27;36826;-62
2022/01/12 05:01:50;;;;;;;55.55;9.13;;;3.60;97.70;;;;;;5083637;27;37248;-62
2022/01/12 05:12:46;;;;;;;199.02;12.48;;;3.50;97.30;;;;;;5077386;28;38035;-62
2022/01/12 05:12:53;;;;;;;182.25;13.40;;;3.50;97.50;;;;;;5081650;28;40563;-62
2022/01/12 05:15:28;;;;;;;170.73;13.57;;;3.40;97.30;;;;;;5084080;27;37572;-62
2022/01/12 05:17:55;;;;;;;209.48;12.88;;;3.30;97.00;;;;;;5083457;28;40217;-62
2022/01/12 05:20:24;;;;;;;138.05;10.93;;;3.20;96.60;;;;;;5083266;27;37702;-62
2022/01/12 05:22:52;;;;;;;62.85;8.13;;;3.20;96.70;;;;;;5082222;27;38813;-63
2022/01/12 05:25:21;;;;;;;72.63;8.30;;;3.10;96.60;;;;;;5083428;27;39010;-63
2022/01/12 05:27:48;;;;;;;34.95;6.45;;;3.00;96.60;;;;;;5083210;27;37251;-63
2022/01/12 05:30:16;;;;;;;41.92;7.05;;;3.00;96.60;;;;;;5082641;27;36491;-61
2022/01/12 05:32:44;;;;;;;35.58;6.65;;;3.00;96.60;;;;;;5081175;27;38235;-63
2022/01/12 05:35:13;;;;;;;13.40;5.93;;;2.90;96.40;;;;;;5081446;28;39399;-61
2022/01/12 05:37:44;;;;;;;8.15;5.18;;;2.90;96.40;;;;;;5081290;27;39982;-61
2022/01/12 05:40:13;;;;;;;16.90;6.43;;;2.90;96.30;;;;;;5081215;28;36756;-61
2022/01/12 05:42:40;;;;;;;20.92;7.10;;;2.90;96.40;;;;;;5082287;28;36290;-61
2022/01/12 05:45:09;;;;;;;12.18;6.82;;;2.80;96.30;;;;;;5083147;28;37451;-62
2022/01/12 05:50:20;;;;;;;13.02;6.22;;;2.80;96.20;;;;;;5049844;28;38731;-62
2022/01/12 05:52:49;;;;;;;13.32;5.93;;;2.80;96.10;;;;;;5082301;27;38133;-62
2022/01/12 05:55:16;;;;;;;11.63;5.65;;;2.80;96.30;;;;;;5082405;28;38109;-62
2022/01/12 05:57:44;;;;;;;13.98;6.65;;;2.80;96.40;;;;;;5082162;28;36339;-61
2022/01/12 06:00:14;;;;;;;13.77;5.68;;;2.80;96.30;;;;;;5083420;28;36830;-62
2022/01/12 06:02:42;;;;;;;9.73;5.57;;;2.80;96.40;;;;;;5082740;27;39389;-62
2022/01/12 06:05:10;;;;;;;12.52;5.88;;;2.90;96.50;;;;;;5083667;27;38522;-62
2022/01/12 06:07:37;;;;;;;22.35;7.60;;;2.90;96.50;;;;;;5081479;28;36372;-62
2022/01/12 06:10:07;;;;;;;17.58;7.22;;;2.90;96.50;;;;;;5080938;27;37347;-62
2022/01/12 06:12:34;;;;;;;14.10;5.70;;;2.90;96.60;;;;;;5082942;27;38114;-63
2022/01/12 06:15:02;;;;;;;37.97;7.13;;;3.00;96.60;;;;;;5081177;27;37646;-61
2022/01/12 06:17:29;;;;;;;51.83;9.75;;;3.00;96.60;;;;;;5082001;28;38116;-62
2022/01/12 06:19:56;;;;;;;86.78;10.63;;;3.00;96.40;;;;;;5083208;28;36739;-61
2022/01/12 06:22:24;;;;;;;104.75;11.80;;;3.00;96.40;;;;;;5082807;27;38022;-61
2022/01/12 06:24:51;;;;;;;96.65;13.32;;;3.00;96.50;;;;;;5081799;27;37292;-61
2022/01/12 06:27:22;;;;;;;63.67;8.55;;;3.00;96.90;;;;;;5082443;28;36082;-61
2022/01/12 06:30:02;;;;;;;105.47;9.85;;;3.00;96.40;;;;;;5079425;27;36779;-61
2022/01/12 06:32:32;;;;;;;75.88;8.05;;;3.00;96.20;;;;;;5081813;27;37349;-62
2022/01/12 06:34:59;;;;;;;73.70;8.85;;;2.90;96.10;;;;;;5081754;28;37760;-62
2022/01/12 06:37:26;;;;;;;64.45;8.10;;;2.80;96.30;;;;;;5081256;27;37911;-62
2022/01/12 06:39:54;;;;;;;82.35;9.35;;;2.80;96.50;;;;;;5081150;27;36689;-61
2022/01/12 06:42:23;;;;;;;37.45;6.75;;;2.80;96.60;;;;;;5082445;28;39629;-61
2022/01/12 06:44:50;;;;;;;68.25;8.23;;;2.90;96.90;;;;;;5081740;28;37900;-61
2022/01/12 06:47:19;;;;;;;52.95;7.10;;;2.90;96.60;;;;;;5083166;28;37592;-61
2022/01/12 06:49:46;;;;;;;61.20;7.00;;;2.90;96.70;;;;;;5081220;27;36393;-61
2022/01/12 06:52:13;;;;;;;74.35;7.70;;;3.00;96.70;;;;;;5081944;27;36365;-61
2022/01/12 06:54:41;;;;;;;118.93;9.40;;;3.00;96.80;;;;;;5082148;28;38512;-61
2022/01/12 06:57:08;;;;;;;104.60;9.85;;;3.00;96.90;;;;;;5080911;28;37464;-61
2022/01/12 06:59:37;;;;;;;115.65;10.27;;;3.00;96.70;;;;;;5082082;27;36668;-61
2022/01/12 07:02:05;;;;;;;119.65;9.65;;;3.00;96.40;;;;;;5082161;27;36669;-61
2022/01/12 07:04:32;;;;;;;71.93;7.38;;;2.80;96.40;;;;;;5080736;27;39031;-61
2022/01/12 07:06:59;;;;;;;52.90;6.07;;;2.80;96.60;;;;;;5080373;27;37369;-61
2022/01/12 07:09:34;;;;;;;53.22;6.65;;;2.80;96.80;;;;;;5080434;28;36229;-61
2022/01/12 07:12:01;;;;;;;31.13;5.95;;;2.80;96.80;;;;;;5079961;27;36401;-61
2022/01/12 07:14:28;;;;;;;37.90;5.82;;;2.80;96.90;;;;;;5081020;28;38248;-61
2022/01/12 07:16:57;;;;;;;28.98;4.80;;;2.80;96.90;;;;;;5081628;28;37904;-61
2022/01/12 07:19:25;;;;;;;26.85;5.35;;;2.80;96.90;;;;;;5082026;27;37821;-61
2022/01/12 07:21:52;;;;;;;35.97;4.93;;;2.80;97.00;;;;;;5080572;27;36432;-61
2022/01/12 07:24:19;;;;;;;50.83;5.63;;;2.80;97.00;;;;;;5082561;27;38221;-61
2022/01/12 07:26:48;;;;;;;35.35;5.25;;;2.80;96.90;;;;;;5080574;28;39563;-61
2022/01/12 07:29:15;;;;;;;41.95;5.68;;;2.90;97.00;;;;;;5081676;27;36616;-61
2022/01/12 07:31:42;;;;;;;41.53;5.65;;;2.90;97.00;;;;;;5081248;28;39043;-61
2022/01/12 07:34:13;;;;;;;30.55;5.00;;;2.80;97.00;;;;;;5080349;27;38608;-61
2022/01/12 07:36:40;;;;;;;44.33;5.53;;;2.80;96.90;;;;;;5080256;28;38378;-61
2022/01/12 07:39:07;;;;;;;68.03;6.75;;;2.80;97.00;;;;;;5080668;28;36328;-61
2022/01/12 07:41:35;;;;;;;50.00;5.32;;;2.80;97.00;;;;;;5080540;27;37935;-61
2022/01/12 07:44:03;;;;;;;57.05;6.30;;;2.80;97.00;;;;;;5081734;27;38992;-62
2022/01/12 07:46:30;;;;;;;41.10;4.00;;;2.80;97.00;;;;;;5082277;27;36187;-61
2022/01/12 07:48:58;;;;;;;44.95;4.30;;;2.80;97.00;;;;;;5081168;27;36474;-61
2022/01/12 07:51:28;;;;;;;56.92;5.05;;;2.70;97.00;;;;;;5080453;27;38309;-62
2022/01/12 07:53:56;;;;;;;36.13;4.10;;;2.70;97.00;;;;;;5079352;28;35444;-61
2022/01/12 07:56:23;;;;;;;36.47;4.20;;;2.10;96.90;;;;;;5080990;27;37885;-61
2022/01/12 07:58:51;;;;;;;40.40;3.80;;;2.60;97.10;;;;;;5076977;28;35667;-61
2022/01/12 08:01:18;;;;;;;42.85;5.45;;;2.60;97.30;;;;;;5082756;27;37549;-61
2022/01/12 08:03:45;;;;;;;49.15;4.78;;;2.60;97.40;;;;;;5084937;27;37643;-61
2022/01/12 08:06:12;;;;;;;40.05;4.30;;;2.70;97.50;;;;;;5085605;27;38145;-61
2022/01/12 08:08:41;;;;;;;37.13;4.55;;;2.60;97.60;;;;;;5083811;28;36584;-61
2022/01/12 08:11:09;;;;;;;42.88;4.75;;;2.70;97.60;;;;;;5084904;28;37650;-61
2022/01/12 08:13:36;;;;;;;23.77;4.05;;;2.70;97.60;;;;;;5086107;27;37877;-61
2022/01/12 08:16:04;;;;;;;39.55;4.53;;;2.80;97.50;;;;;;5085674;27;36330;-61
2022/01/12 08:18:31;;;;;;;32.78;4.03;;;2.80;97.40;;;;;;5084326;28;39001;-61
2022/01/12 08:20:58;;;;;;;37.40;3.95;;;2.90;97.50;;;;;;5084778;27;37595;-61
2022/01/12 08:23:26;;;;;;;43.80;4.40;;;2.80;97.50;;;;;;5083589;28;38182;-61
2022/01/12 08:25:54;;;;;;;31.83;4.45;;;2.90;97.50;;;;;;5084779;28;37762;-63
2022/01/12 08:28:22;;;;;;;52.40;5.05;;;2.90;97.50;;;;;;5082559;28;36387;-62
2022/01/12 08:30:49;;;;;;;45.65;4.13;;;3.00;97.50;;;;;;5084702;27;39433;-61
2022/01/12 08:33:17;;;;;;;39.03;4.30;;;3.00;97.50;;;;;;5084727;27;36442;-61
2022/01/12 08:35:44;;;;;;;24.85;3.55;;;3.00;97.50;;;;;;5084128;27;37557;-61
2022/01/12 08:38:11;;;;;;;14.23;3.35;;;3.00;97.50;;;;;;5084417;27;36654;-62
2022/01/12 08:40:41;;;;;;;17.77;3.45;;;3.10;97.50;;;;;;5083806;27;36216;-62
2022/01/12 08:43:10;;;;;;;35.10;4.28;;;3.10;97.50;;;;;;5084016;27;37493;-61
2022/01/12 08:45:38;;;;;;;23.90;3.65;;;3.10;97.50;;;;;;5084894;27;37426;-61
2022/01/12 08:48:05;;;;;;;30.35;3.95;;;3.10;97.50;;;;;;5083823;28;37346;-62
2022/01/12 08:50:33;;;;;;;28.58;3.88;;;3.20;97.50;;;;;;5084524;27;36288;-61
2022/01/12 08:53:00;;;;;;;30.48;4.15;;;3.20;97.50;;;;;;5084627;27;37838;-61
2022/01/12 08:55:27;;;;;;;14.45;3.90;;;3.20;97.60;;;;;;5083250;28;38731;-61
2022/01/12 08:57:58;;;;;;;44.67;4.40;;;3.20;97.60;;;;;;5082313;27;36217;-62
2022/01/12 09:00:27;;;;;;;52.60;4.72;;;3.20;97.60;;;;;;5082186;27;38903;-61
2022/01/12 09:02:55;;;;;;;38.92;4.75;;;3.30;97.70;;;;;;5082463;28;37691;-61
2022/01/12 09:05:22;;;;;;;46.22;4.47;;;3.30;97.80;;;;;;5083553;27;38271;-61
2022/01/12 09:07:49;;;;;;;44.58;4.25;;;3.30;97.80;;;;;;5084238;27;36288;-61
2022/01/12 09:10:17;;;;;;;61.45;6.00;;;3.30;97.80;;;;;;5083474;28;37648;-61
2022/01/12 09:12:45;;;;;;;33.03;3.60;;;3.40;97.80;;;;;;5079270;27;38445;-61
2022/01/12 09:15:14;;;;;;;53.70;4.65;;;3.30;97.90;;;;;;5079011;28;38036;-61
2022/01/12 09:17:44;;;;;;;33.08;4.00;;;3.40;98.00;;;;;;5078974;27;36668;-61
2022/01/12 09:20:12;;;;;;;50.35;4.97;;;3.40;98.00;;;;;;5081001;28;37823;-62
2022/01/12 09:22:40;;;;;;;37.92;3.53;;;3.50;98.00;;;;;;5080967;28;37800;-61
2022/01/12 09:25:09;;;;;;;27.88;3.22;;;3.50;98.10;;;;;;5080816;27;37475;-62
2022/01/12 09:27:37;;;;;;;52.72;3.78;;;3.60;98.10;;;;;;5081955;27;36414;-61
2022/01/12 09:30:06;;;;;;;36.75;3.78;;;3.70;98.10;;;;;;5082057;27;37426;-61
2022/01/12 09:32:34;;;;;;;50.20;3.83;;;3.70;98.10;;;;;;5080044;28;37634;-61
2022/01/12 09:35:03;;;;;;;46.80;5.10;;;3.80;98.20;;;;;;5082929;28;37460;-61
2022/01/12 09:37:31;;;;;;;83.70;4.90;;;3.90;98.20;;;;;;5082161;28;34756;-61
2022/01/12 09:39:58;;;;;;;68.43;4.15;;;3.90;98.20;;;;;;5081594;27;37586;-61
2022/01/12 09:42:25;;;;;;;58.35;3.97;;;4.00;98.20;;;;;;5082674;28;37576;-61
2022/01/12 09:44:53;;;;;;;47.40;4.10;;;4.00;98.10;;;;;;5082779;28;41077;-61
2022/01/12 09:47:20;;;;;;;33.38;3.30;;;4.00;98.20;;;;;;5083995;28;36681;-61
2022/01/12 09:49:48;;;;;;;35.50;3.83;;;4.10;98.10;;;;;;5083222;27;36453;-61
2022/01/12 09:52:17;;;;;;;59.60;4.55;;;4.00;98.10;;;;;;5079489;28;37826;-61
2022/01/12 09:54:45;;;;;;;37.28;4.07;;;4.10;98.20;;;;;;5083279;27;37790;-61
2022/01/12 09:57:13;;;;;;;33.38;3.58;;;4.10;98.30;;;;;;5083345;28;36717;-61
2022/01/12 09:59:41;;;;;;;19.65;2.90;;;4.10;98.40;;;;;;5083118;28;37938;-61
2022/01/12 10:02:16;;;;;;;36.83;3.60;;;4.20;98.60;;;;;;5083531;28;37866;-61
2022/01/12 10:04:44;;;;;;;43.22;4.07;;;4.30;98.60;;;;;;5078633;27;37644;-61
2022/01/12 10:07:11;;;;;;;69.40;5.47;;;4.40;98.60;;;;;;5075367;27;37207;-61
2022/01/12 10:09:43;;;;;;;47.60;4.65;;;4.50;98.70;;;;;;5074069;27;38363;-61
2022/01/12 10:12:13;;;;;;;30.58;3.55;;;4.60;98.70;;;;;;5081131;28;38980;-61
2022/01/12 10:14:43;;;;;;;43.60;4.53;;;4.70;98.80;;;;;;5081203;28;37680;-61
2022/01/12 10:17:11;;;;;;;38.88;3.80;;;4.80;98.90;;;;;;5082182;27;35392;-61
2022/01/12 10:19:39;;;;;;;53.92;4.53;;;4.80;98.90;;;;;;5083082;27;36329;-61
2022/01/12 10:22:10;;;;;;;49.80;4.70;;;4.90;98.90;;;;;;5080938;27;38401;-61
2022/01/12 10:24:39;;;;;;;91.07;5.25;;;5.00;98.90;;;;;;5080822;27;38264;-61
2022/01/12 10:27:16;;;;;;;77.78;5.70;;;5.10;99.00;;;;;;5082065;27;36766;-61
2022/01/12 10:29:44;;;;;;;65.40;5.18;;;5.10;98.90;;;;;;5078843;27;37790;-61
2022/01/12 10:32:16;;;;;;;44.00;4.55;;;5.10;98.90;;;;;;5072381;28;38314;-61
2022/01/12 10:34:46;;;;;;;52.05;5.25;;;5.10;99.00;;;;;;5076994;28;38670;-61
2022/01/12 10:37:16;;;;;;;44.22;4.60;;;5.10;99.10;;;;;;5081784;28;35002;-61
2022/01/12 10:39:45;;;;;;;41.58;4.30;;;5.20;99.20;;;;;;5082646;27;38257;-61
2022/01/12 10:42:17;;;;;;;49.53;5.35;;;5.20;99.30;;;;;;5081109;28;38231;-61
2022/01/12 10:44:48;;;;;;;44.67;4.72;;;5.20;99.30;;;;;;5082908;27;38131;-61
2022/01/12 10:47:18;;;;;;;38.15;3.38;;;5.40;99.30;;;;;;5082422;28;36292;-61
2022/01/12 10:49:59;;;;;;;20.42;3.42;;;5.50;99.30;;;;;;5082407;28;37428;-61
2022/01/12 10:52:28;;;;;;;35.10;3.83;;;5.50;99.30;;;;;;5081820;27;37904;-61
2022/01/12 10:54:57;;;;;;;22.23;3.20;;;5.60;99.40;;;;;;5082083;27;37401;-61
2022/01/12 10:57:28;;;;;;;23.52;3.97;;;5.70;99.40;;;;;;5082407;28;36515;-61
2022/01/12 11:00:08;;;;;;;33.25;4.07;;;5.70;99.40;;;;;;5082903;28;37617;-61
2022/01/12 11:02:37;;;;;;;27.27;4.20;;;5.80;99.40;;;;;;5082334;27;37780;-61
2022/01/12 11:05:07;;;;;;;30.85;4.20;;;5.80;99.40;;;;;;5082341;27;37546;-61
2022/01/12 11:07:35;;;;;;;32.00;3.85;;;5.80;99.40;;;;;;5081256;27;35471;-61
2022/01/12 11:10:06;;;;;;;12.35;3.45;;;5.80;99.40;;;;;;5082800;28;37748;-61
2022/01/12 11:12:36;;;;;;;33.08;5.15;;;5.90;99.50;;;;;;5082554;27;37916;-61
2022/01/12 11:15:06;;;;;;;59.80;5.97;;;6.00;99.60;;;;;;5081955;28;37491;-61
2022/01/12 11:17:34;;;;;;;20.50;4.10;;;6.00;99.60;;;;;;5082847;27;37948;-61
2022/01/12 11:20:11;;;;;;;27.85;4.95;;;6.00;99.60;;;;;;5081930;28;38373;-61
2022/01/12 11:22:59;;;;;;;19.75;3.72;;;6.00;99.70;;;;;;5080979;28;37563;-61
2022/01/12 11:25:29;;;;;;;12.57;4.15;;;6.10;99.90;;;;;;5081665;28;38564;-61
2022/01/12 11:28:10;;;;;;;19.90;4.95;;;6.20;99.90;;;;;;5080603;27;36671;-61
2022/01/12 11:30:40;;;;;;;16.85;4.53;;;6.30;99.90;;;;;;5082116;27;38336;-61
2022/01/12 11:33:09;;;;;;;19.55;4.18;;;6.40;99.90;;;;;;5080193;28;40307;-61
2022/01/12 11:35:40;;;;;;;13.75;4.65;;;6.50;99.90;;;;;;5079772;27;35911;-61
2022/01/12 11:38:19;;;;;;;17.50;4.93;;;6.50;99.90;;;;;;5082256;28;35391;-61
2022/01/12 11:40:47;;;;;;;20.98;4.95;;;6.60;99.90;;;;;;5084945;27;40079;-61
2022/01/12 11:43:22;;;;;;;16.40;5.13;;;6.70;99.90;;;;;;5081387;28;37744;-62
2022/01/12 11:46:02;;;;;;;15.32;5.20;;;6.70;99.90;;;;;;5083388;28;37701;-61
2022/01/12 11:48:31;;;;;;;20.92;5.07;;;6.70;99.90;;;;;;5083535;27;36502;-61
2022/01/12 11:50:59;;;;;;;13.70;4.47;;;6.70;99.90;;;;;;5082721;27;37695;-61
2022/01/12 11:53:27;;;;;;;22.30;6.35;;;6.70;99.90;;;;;;5085051;27;36443;-61
2022/01/12 11:55:55;;;;;;;15.40;5.53;;;6.70;99.90;;;;;;5084486;27;38049;-61
2022/01/12 11:58:24;;;;;;;21.35;5.63;;;6.70;99.90;;;;;;5085525;27;39241;-61
2022/01/12 12:00:52;;;;;;;16.38;6.18;;;6.60;99.90;;;;;;5085219;27;39290;-61
2022/01/12 12:03:20;;;;;;;17.42;6.05;;;6.60;99.90;;;;;;5085826;28;36621;-61
2022/01/12 12:05:48;;;;;;;22.88;6.03;;;6.60;99.90;;;;;;5084114;28;38326;-61
2022/01/12 12:08:25;;;;;;;15.95;5.55;;;6.60;99.90;;;;;;5084516;27;36433;-61
2022/01/12 12:10:54;;;;;;;15.88;6.07;;;6.70;99.90;;;;;;5084115;27;37568;-61
2022/01/12 12:13:23;;;;;;;21.27;5.82;;;6.70;99.90;;;;;;5085504;27;38243;-61
2022/01/12 12:15:52;;;;;;;23.23;6.60;;;6.70;99.90;;;;;;5085520;27;38256;-61
2022/01/12 12:18:19;;;;;;;22.33;6.88;;;6.70;99.90;;;;;;5085246;27;36585;-61
2022/01/12 12:20:46;;;;;;;22.98;7.38;;;6.70;99.90;;;;;;5084826;27;38772;-61
2022/01/12 12:23:14;;;;;;;34.00;7.47;;;6.80;99.90;;;;;;5083439;27;36480;-61
2022/01/12 12:25:41;;;;;;;16.73;6.78;;;6.80;99.90;;;;;;5084395;27;37707;-62
2022/01/12 12:28:09;;;;;;;17.13;7.03;;;6.80;99.90;;;;;;5084417;27;37897;-61
2022/01/12 12:30:39;;;;;;;22.33;7.28;;;6.90;99.90;;;;;;5084680;28;36301;-61
2022/01/12 12:33:08;;;;;;;21.10;7.38;;;6.90;99.90;;;;;;5083905;27;37841;-62
2022/01/12 12:35:37;;;;;;;24.30;8.07;;;7.00;99.90;;;;;;5084721;28;37390;-62
2022/01/12 12:38:07;;;;;;;18.35;7.70;;;6.90;99.90;;;;;;5083149;28;35180;-62
2022/01/12 12:40:37;;;;;;;17.60;7.20;;;6.90;99.90;;;;;;5084189;27;38156;-62
2022/01/12 12:43:07;;;;;;;20.17;8.52;;;7.00;99.90;;;;;;5083309;28;37950;-62
2022/01/12 12:45:41;;;;;;;30.20;8.90;;;7.00;99.90;;;;;;5084603;27;38004;-62
2022/01/12 12:48:09;;;;;;;;;;;7.00;99.90;;;;;;5084289;27;36519;-62
2022/01/12 12:50:37;;;;;;;19.38;7.05;;;6.90;99.90;;;;;;5083473;28;36601;-62
2022/01/12 12:53:04;;;;;;;17.77;7.82;;;6.90;99.90;;;;;;5083446;28;38037;-62
2022/01/12 12:55:36;;;;;;;24.20;8.00;;;6.90;99.90;;;;;;5085201;27;37296;-62
2022/01/12 12:58:05;;;;;;;24.25;9.05;;;6.90;99.90;;;;;;5084135;27;36606;-62
2022/01/12 13:00:33;;;;;;;21.10;8.13;;;6.90;99.90;;;;;;5083871;28;39693;-63
2022/01/12 13:03:03;;;;;;;21.40;8.35;;;6.90;99.90;;;;;;5084621;27;39123;-62
2022/01/12 13:05:33;;;;;;;17.83;7.35;;;7.00;99.90;;;;;;5083679;27;37491;-62
2022/01/12 13:08:00;;;;;;;22.42;8.07;;;7.00;99.90;;;;;;5082382;27;37197;-62
2022/01/12 13:10:29;;;;;;;22.42;8.02;;;7.00;99.90;;;;;;5082069;27;38277;-62
2022/01/12 13:12:59;;;;;;;23.75;8.20;;;7.00;99.90;;;;;;5083554;27;39070;-62
2022/01/12 13:15:28;;;;;;;26.17;8.68;;;7.00;99.90;;;;;;5082976;28;37422;-62
2022/01/12 13:18:03;;;;;;;25.52;9.13;;;7.00;99.90;;;;;;5083992;28;35592;-62
2022/01/12 13:23:18;;;;;;;15.57;6.90;;;7.00;99.90;;;;;;5083770;27;39329;-62
2022/01/12 13:25:46;;;;;;;15.18;6.68;;;7.10;99.90;;;;;;5083675;27;36431;-62
2022/01/12 13:28:13;;;;;;;17.25;7.70;;;7.10;99.90;;;;;;5083655;28;37355;-62
2022/01/12 13:30:49;;;;;;;20.02;7.38;;;7.10;99.90;;;;;;5084051;27;38029;-62
2022/01/12 13:33:26;;;;;;;19.00;7.93;;;7.10;99.90;;;;;;5084381;27;37711;-62
2022/01/12 13:35:54;;;;;;;24.38;8.10;;;7.10;99.90;;;;;;5083578;27;38446;-62
2022/01/12 13:38:30;;;;;;;20.02;6.95;;;7.10;99.90;;;;;;5082428;27;37823;-62
2022/01/12 13:41:06;;;;;;;19.83;7.50;;;7.00;99.90;;;;;;5082662;27;37464;-62
2022/01/12 13:43:34;;;;;;;18.10;7.60;;;7.00;99.90;;;;;;5082732;28;37912;-62
2022/01/12 13:46:04;;;;;;;18.30;7.38;;;7.00;99.90;;;;;;5083987;28;38170;-62
2022/01/12 13:48:33;;;;;;;17.45;7.00;;;6.90;99.90;;;;;;5082527;27;37233;-62
2022/01/12 13:51:03;;;;;;;15.07;6.80;;;6.90;99.90;;;;;;5082923;27;38706;-62
2022/01/12 13:53:35;;;;;;;20.17;6.78;;;6.90;99.90;;;;;;5083896;27;37721;-62
2022/01/12 13:56:04;;;;;;;16.88;7.03;;;6.90;99.90;;;;;;5082929;27;37432;-62
2022/01/12 13:58:33;;;;;;;18.15;6.90;;;6.80;99.90;;;;;;5082153;28;38573;-62
2022/01/12 14:01:02;;;;;;;12.82;7.10;;;6.80;99.90;;;;;;5082778;27;37391;-62
2022/01/12 14:03:32;;;;;;;15.07;6.50;;;6.80;99.90;;;;;;5081448;28;37559;-62